Time;durP1;ratioP1;P1;durP2;ratioP2;P2;SDS_P1;SDS_P2;PMS_P1;PMS_P2;Temp;Humidity;BMP_temperature;BMP_pressure;BME280_temperature;BME280_humidity;BME280_pressure;Samples;Min_cycle;Max_cycle;Signal;HPM_P1;HPM_P2
2022/09/10 00:01:40;;;;;;;0.82;0.40;;;18.80;71.00;;;;;;5078324;28;20045;-51
2022/09/10 00:04:10;;;;;;;2.28;0.60;;;18.90;70.80;;;;;;5088918;28;20079;-49
2022/09/10 00:06:37;;;;;;;1.33;0.68;;;18.90;70.70;;;;;;5085672;28;20029;-50
2022/09/10 00:09:05;;;;;;;0.82;0.52;;;18.90;70.70;;;;;;5086208;28;20040;-51
2022/09/10 00:11:34;;;;;;;1.80;0.60;;;18.90;70.70;;;;;;5083993;28;20059;-50
2022/09/10 00:14:05;;;;;;;1.50;0.60;;;18.90;70.80;;;;;;5086533;28;20071;-51
2022/09/10 00:16:32;;;;;;;1.15;0.52;;;18.90;70.80;;;;;;5079789;28;20067;-47
2022/09/10 00:19:01;;;;;;;0.68;0.50;;;18.90;70.70;;;;;;5075223;28;20173;-47
2022/09/10 00:21:31;;;;;;;;;;;19.00;70.90;;;;;;5080277;28;20060;-48
2022/09/10 00:23:59;;;;;;;1.98;0.60;;;19.00;71.00;;;;;;5070335;28;20377;-49
2022/09/10 00:26:34;;;;;;;5.07;0.70;;;19.00;70.50;;;;;;5077556;28;20040;-49
2022/09/10 00:29:03;;;;;;;1.48;0.70;;;19.00;70.80;;;;;;5079702;28;20120;-50
2022/09/10 00:31:33;;;;;;;0.50;0.50;;;19.00;70.70;;;;;;5072665;28;20050;-48
2022/09/10 00:34:02;;;;;;;0.98;0.60;;;19.00;70.80;;;;;;5087563;28;20043;-51
2022/09/10 00:36:41;;;;;;;1.30;0.77;;;19.00;70.90;;;;;;5060201;28;20516;-51
2022/09/10 00:39:11;;;;;;;2.03;1.27;;;19.00;70.90;;;;;;5061312;28;20146;-52
2022/09/10 00:41:40;;;;;;;1.23;0.60;;;19.00;71.00;;;;;;5084759;28;20047;-48
2022/09/10 00:44:39;;;;;;;1.30;0.60;;;19.00;71.00;;;;;;5088632;28;20056;-50
2022/09/10 00:47:18;;;;;;;2.20;1.00;;;19.10;71.20;;;;;;5080263;28;20037;-52
2022/09/10 00:49:50;;;;;;;1.45;0.80;;;19.10;71.30;;;;;;5074889;28;20504;-48
2022/09/10 00:52:17;;;;;;;1.45;0.80;;;19.10;71.20;;;;;;5069934;28;20048;-50
2022/09/10 00:54:46;;;;;;;1.83;1.15;;;19.10;71.00;;;;;;5061464;28;20032;-50
2022/09/10 00:57:20;;;;;;;2.65;1.10;;;19.10;71.00;;;;;;5059490;28;20513;-48
2022/09/10 00:59:52;;;;;;;1.52;0.93;;;19.10;71.20;;;;;;5059473;28;20047;-48
2022/09/10 01:02:25;;;;;;;2.10;0.88;;;19.10;71.20;;;;;;5069940;28;20158;-48
2022/09/10 01:04:57;;;;;;;3.92;1.23;;;19.10;71.10;;;;;;5076667;28;20087;-48
2022/09/10 01:07:32;;;;;;;1.10;1.05;;;19.10;71.20;;;;;;5054348;28;20127;-47
2022/09/10 01:10:05;;;;;;;2.25;1.10;;;19.10;71.20;;;;;;5055731;28;20420;-47
2022/09/10 01:13:03;;;;;;;4.15;1.30;;;19.10;71.20;;;;;;5060962;28;20044;-49
2022/09/10 01:15:45;;;;;;;2.38;1.30;;;19.20;71.60;;;;;;5061195;28;20067;-50
2022/09/10 01:18:32;;;;;;;2.80;1.60;;;19.20;71.30;;;;;;5085220;28;20067;-48
2022/09/10 01:21:09;;;;;;;2.67;1.05;;;19.20;71.10;;;;;;5075209;28;20078;-51
2022/09/10 01:24:16;;;;;;;2.78;1.23;;;19.20;71.20;;;;;;5064372;28;20040;-48
2022/09/10 01:27:16;;;;;;;1.08;0.98;;;19.20;71.20;;;;;;5058091;28;20058;-47
2022/09/10 01:30:02;;;;;;;2.65;1.50;;;19.20;71.00;;;;;;5041023;28;20064;-49
2022/09/10 01:32:46;;;;;;;2.83;1.20;;;19.20;70.90;;;;;;5061168;28;20122;-49
2022/09/10 01:35:24;;;;;;;2.40;1.38;;;19.20;70.80;;;;;;5084176;28;20036;-48
2022/09/10 01:37:55;;;;;;;2.17;1.10;;;19.20;70.80;;;;;;5071476;28;20046;-50
2022/09/10 01:40:28;;;;;;;3.00;1.25;;;19.20;70.90;;;;;;5069054;28;20115;-51
2022/09/10 01:43:09;;;;;;;1.67;1.10;;;19.20;70.90;;;;;;5065740;28;20094;-51
2022/09/10 01:46:09;;;;;;;2.97;1.27;;;19.20;71.20;;;;;;5054644;28;20523;-49
2022/09/10 01:48:48;;;;;;;1.90;1.35;;;19.20;70.90;;;;;;5038425;28;20048;-47
2022/09/10 01:51:43;;;;;;;2.47;1.75;;;19.20;71.00;;;;;;5063957;28;20159;-51
2022/09/10 01:54:25;;;;;;;1.77;1.67;;;19.20;70.80;;;;;;5064246;28;20727;-48
2022/09/10 01:57:19;;;;;;;1.60;1.45;;;19.20;71.10;;;;;;5063502;28;20041;-47
2022/09/10 02:00:23;;;;;;;1.70;1.52;;;19.20;71.20;;;;;;5062692;28;20087;-48
2022/09/10 02:03:00;;;;;;;3.00;1.92;;;19.20;71.10;;;;;;5076944;28;20051;-51
2022/09/10 02:05:35;;;;;;;4.18;2.00;;;19.20;70.90;;;;;;5033933;28;20049;-48
2022/09/10 02:08:11;;;;;;;2.35;1.90;;;19.20;71.10;;;;;;5076678;28;20032;-48
2022/09/10 02:10:59;;;;;;;4.70;2.10;;;19.10;71.20;;;;;;5060403;28;20044;-51
2022/09/10 02:13:35;;;;;;;3.63;1.65;;;19.20;71.40;;;;;;5065401;28;20056;-48
2022/09/10 02:16:37;;;;;;;3.15;1.55;;;19.10;71.00;;;;;;5060118;28;20044;-49
2022/09/10 02:19:05;;;;;;;2.60;1.55;;;19.20;71.40;;;;;;5080960;28;20040;-49
2022/09/10 02:21:32;;;;;;;4.57;1.73;;;19.20;71.20;;;;;;5062241;28;20067;-48
2022/09/10 02:24:07;;;;;;;3.38;1.60;;;19.20;71.30;;;;;;5071874;28;20063;-51
2022/09/10 02:26:38;;;;;;;3.47;2.13;;;19.10;71.40;;;;;;5066154;28;20107;-48
2022/09/10 02:29:09;;;;;;;2.47;1.73;;;19.20;71.30;;;;;;5064733;28;20040;-51
2022/09/10 02:31:37;;;;;;;3.65;1.95;;;19.20;71.30;;;;;;5064991;28;20417;-49
2022/09/10 02:34:04;;;;;;;5.07;2.25;;;19.20;71.40;;;;;;5089993;28;20115;-51
2022/09/10 02:36:31;;;;;;;2.95;1.42;;;19.20;71.40;;;;;;5071807;28;20076;-49
2022/09/10 02:39:08;;;;;;;2.25;2.05;;;19.20;71.50;;;;;;5081435;28;20076;-48
2022/09/10 02:41:40;;;;;;;2.30;1.70;;;19.20;71.50;;;;;;5065571;28;20036;-50
2022/09/10 02:44:07;;;;;;;3.33;2.33;;;19.20;71.50;;;;;;5074108;28;20048;-49
2022/09/10 02:46:35;;;;;;;2.50;1.60;;;19.20;71.50;;;;;;5048839;28;20044;-51
2022/09/10 02:49:02;;;;;;;4.95;1.80;;;19.20;71.40;;;;;;5062068;28;20099;-50
2022/09/10 02:51:38;;;;;;;4.20;1.67;;;19.20;71.40;;;;;;5065193;28;20482;-47
2022/09/10 02:54:07;;;;;;;3.35;1.65;;;19.20;71.40;;;;;;5098278;22;20056;-50
2022/09/10 02:56:34;;;;;;;6.13;1.90;;;19.20;71.40;;;;;;5072983;28;20560;-49
2022/09/10 02:59:05;;;;;;;3.25;1.73;;;19.20;71.40;;;;;;5092673;28;20040;-47
2022/09/10 03:01:33;;;;;;;4.32;2.38;;;19.20;71.30;;;;;;5089986;28;20071;-47
2022/09/10 03:04:03;;;;;;;2.67;1.85;;;19.30;71.40;;;;;;5077609;28;20427;-47
2022/09/10 03:06:31;;;;;;;4.35;2.00;;;19.30;71.40;;;;;;5085145;28;20561;-50
2022/09/10 03:08:57;;;;;;;6.68;1.83;;;19.20;71.50;;;;;;5082766;28;20046;-50
2022/09/10 03:11:27;;;;;;;3.10;1.88;;;19.20;71.60;;;;;;5096924;28;20081;-48
2022/09/10 03:13:56;;;;;;;3.92;2.40;;;19.20;71.60;;;;;;5092810;28;20059;-48
2022/09/10 03:16:25;;;;;;;3.42;2.17;;;19.20;72.30;;;;;;5083827;28;20051;-47
2022/09/10 03:18:57;;;;;;;5.28;2.20;;;19.20;71.60;;;;;;5073114;28;20047;-46
2022/09/10 03:21:27;;;;;;;;;;;19.20;71.70;;;;;;5110656;28;20067;-49
2022/09/10 03:23:56;;;;;;;4.60;2.05;;;19.30;71.70;;;;;;5076389;28;19961;-48
2022/09/10 03:26:27;;;;;;;5.53;2.00;;;19.30;71.40;;;;;;5085715;28;20044;-47
2022/09/10 03:28:54;;;;;;;2.90;2.08;;;19.20;71.40;;;;;;5103589;28;20070;-47
2022/09/10 03:31:26;;;;;;;3.47;2.13;;;19.00;71.50;;;;;;5092514;28;20044;-49
2022/09/10 03:33:56;;;;;;;3.63;2.03;;;19.20;71.80;;;;;;5089398;28;20388;-47
2022/09/10 03:36:30;;;;;;;5.22;2.35;;;19.20;71.80;;;;;;5081736;28;20096;-47
2022/09/10 03:38:59;;;;;;;3.70;2.10;;;19.20;71.80;;;;;;5102981;28;20130;-49
2022/09/10 03:41:34;;;;;;;4.38;2.00;;;19.20;72.60;;;;;;5093121;28;20142;-49
2022/09/10 03:44:04;;;;;;;7.38;2.45;;;19.20;72.00;;;;;;5080557;28;20512;-51
2022/09/10 03:46:35;;;;;;;6.50;2.33;;;19.20;72.00;;;;;;5101512;28;20089;-51
2022/09/10 03:49:06;;;;;;;3.55;2.42;;;19.10;72.10;;;;;;5090604;28;20567;-50
2022/09/10 03:51:34;;;;;;;3.28;2.20;;;19.10;72.30;;;;;;5109900;28;20040;-52
2022/09/10 03:54:01;;;;;;;5.07;2.60;;;19.10;72.30;;;;;;5088263;28;20039;-51
2022/09/10 03:56:31;;;;;;;6.07;2.33;;;19.10;72.40;;;;;;5080256;28;20040;-47
2022/09/10 03:59:02;;;;;;;3.53;2.50;;;19.10;72.40;;;;;;5090206;28;20043;-50
2022/09/10 04:01:29;;;;;;;7.07;2.67;;;19.10;72.40;;;;;;5083282;28;20645;-51
2022/09/10 04:04:04;;;;;;;5.07;2.72;;;19.10;72.60;;;;;;5080556;28;20066;-49
2022/09/10 04:06:34;;;;;;;5.63;2.85;;;19.10;73.00;;;;;;5102521;28;20523;-47
2022/09/10 04:09:01;;;;;;;4.28;2.45;;;19.10;72.80;;;;;;5092732;28;20039;-48
2022/09/10 04:11:28;;;;;;;6.45;2.75;;;19.10;73.10;;;;;;5084844;28;20146;-50
2022/09/10 04:13:56;;;;;;;5.30;2.63;;;19.00;73.00;;;;;;5077065;28;20044;-51
2022/09/10 04:16:24;;;;;;;6.85;2.45;;;19.00;73.70;;;;;;5092476;28;20067;-52
2022/09/10 04:18:51;;;;;;;6.07;3.83;;;19.00;73.10;;;;;;5086376;28;20043;-52
2022/09/10 04:21:19;;;;;;;3.38;2.65;;;18.90;73.40;;;;;;5083095;28;20032;-52
2022/09/10 04:23:47;;;;;;;4.68;2.25;;;18.90;73.40;;;;;;5076363;28;20035;-52
2022/09/10 04:26:19;;;;;;;7.60;2.63;;;18.90;73.40;;;;;;5083663;28;20055;-49
2022/09/10 04:28:48;;;;;;;3.30;2.33;;;18.80;73.40;;;;;;5090388;28;20534;-48
2022/09/10 04:31:15;;;;;;;3.97;2.60;;;18.80;73.60;;;;;;5085366;28;20045;-50
2022/09/10 04:33:45;;;;;;;7.10;2.90;;;18.80;73.90;;;;;;5084095;28;20054;-47
2022/09/10 04:36:16;;;;;;;3.60;2.38;;;18.80;73.90;;;;;;5092378;28;20079;-49
2022/09/10 04:38:43;;;;;;;8.25;3.03;;;18.80;74.00;;;;;;5083518;28;20879;-52
2022/09/10 04:41:20;;;;;;;4.18;2.40;;;18.80;74.10;;;;;;5083626;28;20102;-52
2022/09/10 04:43:47;;;;;;;6.55;2.92;;;18.80;74.10;;;;;;5085979;28;20035;-49
2022/09/10 04:46:14;;;;;;;2.40;2.17;;;18.80;74.00;;;;;;5076143;28;20520;-50
2022/09/10 04:48:44;;;;;;;4.18;3.22;;;18.70;74.10;;;;;;5080687;28;20570;-49
2022/09/10 04:51:16;;;;;;;5.20;3.00;;;18.70;74.30;;;;;;5086754;28;20043;-51
2022/09/10 04:53:49;;;;;;;5.40;2.85;;;18.80;74.20;;;;;;5097004;28;20595;-49
2022/09/10 04:56:19;;;;;;;6.80;2.67;;;18.80;74.30;;;;;;5081202;28;20603;-47
2022/09/10 04:58:46;;;;;;;4.65;2.58;;;18.80;74.20;;;;;;5102173;28;20036;-48
2022/09/10 05:01:13;;;;;;;5.28;3.22;;;18.80;74.30;;;;;;5107978;28;20488;-51
2022/09/10 05:03:42;;;;;;;4.55;3.45;;;18.80;74.40;;;;;;5076405;28;20424;-50
2022/09/10 05:06:10;;;;;;;7.57;3.97;;;18.80;74.50;;;;;;5094594;28;20036;-51
2022/09/10 05:08:39;;;;;;;5.88;2.72;;;18.80;74.40;;;;;;5087332;28;20044;-50
2022/09/10 05:11:07;;;;;;;5.32;2.63;;;18.80;74.40;;;;;;5086338;28;20048;-47
2022/09/10 05:13:38;;;;;;;3.13;2.83;;;18.90;74.70;;;;;;5095715;28;20097;-48
2022/09/10 05:16:07;;;;;;;3.85;2.92;;;19.10;74.90;;;;;;5109191;28;20079;-48
2022/09/10 05:18:34;;;;;;;4.25;2.63;;;18.90;74.60;;;;;;5061005;28;20037;-48
2022/09/10 05:21:04;;;;;;;7.45;2.97;;;18.90;74.40;;;;;;5085604;28;20040;-50
2022/09/10 05:23:32;;;;;;;6.32;3.33;;;18.90;74.40;;;;;;5077479;28;20043;-47
2022/09/10 05:26:00;;;;;;;5.97;3.92;;;19.00;74.30;;;;;;5075555;28;20037;-52
2022/09/10 05:28:27;;;;;;;5.50;2.95;;;19.00;74.20;;;;;;5087951;28;20059;-48
2022/09/10 05:30:54;;;;;;;2.97;2.65;;;19.00;74.10;;;;;;5087974;28;20499;-51
2022/09/10 05:33:23;;;;;;;6.35;2.83;;;19.00;74.00;;;;;;5096146;28;20047;-52
2022/09/10 05:35:53;;;;;;;6.72;3.00;;;19.00;74.00;;;;;;5105925;28;20042;-50
2022/09/10 05:38:20;;;;;;;4.15;2.60;;;19.10;74.20;;;;;;5089145;28;20404;-52
2022/09/10 05:40:47;;;;;;;6.32;2.90;;;19.10;74.10;;;;;;5087561;28;20043;-52
2022/09/10 05:43:15;;;;;;;5.18;2.72;;;19.10;74.10;;;;;;5095908;28;20063;-52
2022/09/10 05:45:43;;;;;;;3.38;2.45;;;19.10;74.10;;;;;;5103667;28;20619;-52
2022/09/10 05:48:10;;;;;;;5.90;2.85;;;19.00;74.00;;;;;;5104165;28;20113;-51
2022/09/10 05:50:40;;;;;;;6.70;3.30;;;19.10;74.10;;;;;;5075676;28;20044;-53
2022/09/10 05:53:10;;;;;;;4.97;3.00;;;19.10;74.10;;;;;;5073642;28;20044;-49
2022/09/10 05:55:40;;;;;;;4.38;3.10;;;19.10;74.10;;;;;;5083127;28;20093;-51
2022/09/10 05:58:07;;;;;;;4.35;2.95;;;19.10;74.10;;;;;;5084592;28;20054;-50
2022/09/10 06:00:36;;;;;;;5.47;3.35;;;19.10;74.10;;;;;;5093603;28;20051;-51
2022/09/10 06:03:04;;;;;;;5.28;3.00;;;19.10;74.10;;;;;;5087576;28;20044;-49
2022/09/10 06:05:37;;;;;;;4.32;3.45;;;19.10;74.10;;;;;;5085134;28;20040;-52
2022/09/10 06:08:04;;;;;;;7.68;4.10;;;19.10;74.10;;;;;;5074749;28;20173;-50
2022/09/10 06:10:36;;;;;;;6.45;4.40;;;19.10;74.10;;;;;;5074073;28;20048;-55
2022/09/10 06:13:03;;;;;;;4.32;2.95;;;19.10;74.10;;;;;;5080503;28;20357;-55
2022/09/10 06:15:39;;;;;;;4.50;2.90;;;19.20;74.20;;;;;;5081741;28;20313;-55
2022/09/10 06:18:06;;;;;;;5.25;3.30;;;19.20;74.20;;;;;;5053836;28;20044;-52
2022/09/10 06:20:33;;;;;;;4.88;2.88;;;19.20;74.00;;;;;;5072670;28;20432;-55
2022/09/10 06:23:00;;;;;;;7.05;3.40;;;19.20;74.20;;;;;;5078730;28;20123;-54
2022/09/10 06:25:27;;;;;;;5.40;3.60;;;19.20;74.10;;;;;;5081087;28;20052;-55
2022/09/10 06:27:59;;;;;;;4.15;3.42;;;19.20;74.10;;;;;;5106872;28;20503;-55
2022/09/10 06:30:28;;;;;;;5.53;3.15;;;19.20;74.20;;;;;;5109086;28;20321;-53
2022/09/10 06:33:09;;;;;;;7.05;3.55;;;19.20;74.20;;;;;;5098659;28;20044;-54
2022/09/10 06:35:38;;;;;;;4.32;3.28;;;19.20;74.20;;;;;;5098480;28;20032;-55
2022/09/10 06:38:05;;;;;;;6.88;3.60;;;19.20;74.00;;;;;;5080817;28;20048;-54
2022/09/10 06:40:32;;;;;;;7.63;3.90;;;19.20;74.20;;;;;;5068792;28;20044;-54
2022/09/10 06:43:02;;;;;;;7.82;3.47;;;19.20;74.20;;;;;;5068613;28;20068;-54
2022/09/10 06:45:51;;;;;;;7.93;3.67;;;19.20;74.40;;;;;;5096871;28;20075;-53
2022/09/10 06:48:39;;;;;;;6.10;3.70;;;19.20;74.40;;;;;;5071428;28;20514;-53
2022/09/10 06:51:15;;;;;;;5.43;3.53;;;19.30;74.20;;;;;;5070948;28;20071;-52
2022/09/10 06:53:45;;;;;;;6.80;3.65;;;19.20;74.30;;;;;;5068741;28;20040;-53
2022/09/10 06:56:14;;;;;;;4.70;3.17;;;19.30;74.20;;;;;;5078511;28;20589;-53
2022/09/10 06:58:42;;;;;;;6.60;3.90;;;19.30;74.20;;;;;;5077992;28;20551;-55
2022/09/10 07:01:17;;;;;;;5.97;3.33;;;19.30;74.20;;;;;;5075217;28;20040;-54
2022/09/10 07:03:56;;;;;;;4.43;3.08;;;19.30;75.00;;;;;;5083834;28;20116;-53
2022/09/10 07:06:33;;;;;;;6.10;3.80;;;19.40;74.50;;;;;;5071265;28;20044;-54
2022/09/10 07:09:05;;;;;;;5.22;3.60;;;19.40;74.60;;;;;;5075225;28;20047;-55
2022/09/10 07:11:36;;;;;;;5.67;4.00;;;19.40;74.70;;;;;;5076831;28;20047;-55
2022/09/10 07:14:12;;;;;;;6.38;4.55;;;19.40;74.50;;;;;;5076715;28;20055;-55
2022/09/10 07:16:43;;;;;;;9.13;5.13;;;19.50;74.30;;;;;;5071214;28;20054;-55
2022/09/10 07:19:12;;;;;;;4.85;4.20;;;19.50;74.30;;;;;;5080729;28;20075;-55
2022/09/10 07:21:42;;;;;;;5.88;4.30;;;19.50;74.40;;;;;;5082451;28;20038;-56
2022/09/10 07:24:13;;;;;;;4.53;3.85;;;19.60;74.40;;;;;;5081693;28;20043;-55
2022/09/10 07:26:59;;;;;;;6.85;5.13;;;19.60;74.30;;;;;;5087056;28;20040;-55
2022/09/10 07:29:29;;;;;;;4.57;4.10;;;19.60;74.10;;;;;;5084872;28;20101;-55
2022/09/10 07:31:56;;;;;;;5.55;3.90;;;19.60;74.20;;;;;;5080268;28;20514;-53
2022/09/10 07:34:26;;;;;;;6.57;4.65;;;19.60;74.40;;;;;;5082201;28;20511;-55
2022/09/10 07:36:55;;;;;;;7.13;4.20;;;19.70;74.30;;;;;;5099799;28;20050;-55
2022/09/10 07:39:22;;;;;;;5.68;4.95;;;19.70;74.40;;;;;;5081952;28;20562;-55
2022/09/10 07:41:54;;;;;;;;;;;19.70;74.40;;;;;;5071991;28;20050;-54
2022/09/10 07:44:25;;;;;;;7.68;4.63;;;19.80;74.40;;;;;;5079629;28;19965;-55
2022/09/10 07:46:55;;;;;;;4.80;4.30;;;19.80;74.20;;;;;;5082350;28;20596;-54
2022/09/10 07:49:21;;;;;;;7.85;5.22;;;19.90;74.40;;;;;;5078753;28;20454;-55
2022/09/10 07:51:52;;;;;;;5.57;4.95;;;19.90;74.40;;;;;;5059749;28;20048;-53
2022/09/10 07:54:27;;;;;;;5.93;5.30;;;20.00;74.30;;;;;;5063359;28;20063;-55
2022/09/10 07:56:55;;;;;;;5.63;5.10;;;20.00;74.00;;;;;;5071274;28;20048;-54
2022/09/10 07:59:27;;;;;;;6.75;5.88;;;20.00;73.80;;;;;;5092363;28;20032;-55
2022/09/10 08:02:00;;;;;;;6.22;5.15;;;20.00;73.70;;;;;;5085514;28;20061;-54
2022/09/10 08:04:32;;;;;;;7.25;5.97;;;20.10;73.90;;;;;;5084435;28;20093;-54
2022/09/10 08:07:05;;;;;;;6.72;5.07;;;20.10;73.70;;;;;;5079927;28;20044;-54
2022/09/10 08:09:34;;;;;;;10.15;5.90;;;20.10;74.10;;;;;;5073515;28;20528;-55
2022/09/10 08:12:02;;;;;;;8.98;6.25;;;20.10;74.70;;;;;;5097894;28;20032;-55
2022/09/10 08:14:30;;;;;;;7.63;6.53;;;20.00;73.90;;;;;;5079469;28;20040;-55
2022/09/10 08:16:57;;;;;;;7.22;5.38;;;20.00;73.90;;;;;;5070211;28;20164;-55
2022/09/10 08:19:24;;;;;;;6.88;5.25;;;19.90;73.90;;;;;;5087835;28;20036;-51
2022/09/10 08:21:51;;;;;;;9.93;5.75;;;19.90;74.00;;;;;;5064412;28;20170;-55
2022/09/10 08:24:27;;;;;;;7.55;6.25;;;19.80;74.20;;;;;;5071264;28;20481;-53
2022/09/10 08:26:53;;;;;;;8.90;6.10;;;19.70;74.10;;;;;;5084775;28;20058;-53
2022/09/10 08:29:21;;;;;;;7.40;5.72;;;19.70;74.10;;;;;;5085840;28;20381;-55
2022/09/10 08:31:47;;;;;;;8.43;6.05;;;19.60;74.20;;;;;;5076343;28;20051;-54
2022/09/10 08:34:22;;;;;;;8.10;6.00;;;19.60;74.40;;;;;;5064555;28;20133;-53
2022/09/10 08:36:58;;;;;;;8.30;6.45;;;19.50;74.30;;;;;;5062735;28;20611;-54
2022/09/10 08:39:26;;;;;;;7.45;6.10;;;19.50;74.50;;;;;;5044724;28;20052;-56
2022/09/10 08:41:58;;;;;;;7.60;6.70;;;19.50;74.80;;;;;;5068112;28;20063;-53
2022/09/10 08:44:43;;;;;;;;;;;19.50;74.90;;;;;;5066730;28;20036;-56
2022/09/10 08:47:28;;;;;;;9.32;7.03;;;19.50;75.10;;;;;;5066374;28;20656;-57
2022/09/10 08:50:28;;;;;;;8.73;7.20;;;19.40;75.30;;;;;;5069052;28;20047;-55
2022/09/10 08:53:04;;;;;;;8.60;6.82;;;19.40;75.30;;;;;;5073286;28;20041;-51
2022/09/10 08:55:33;;;;;;;9.43;7.53;;;19.40;75.20;;;;;;5078575;28;20055;-54
2022/09/10 08:58:17;;;;;;;8.32;6.53;;;19.40;75.30;;;;;;5070753;28;20040;-54
2022/09/10 09:00:52;;;;;;;8.07;7.28;;;19.40;75.80;;;;;;5069483;28;20043;-54
2022/09/10 09:03:32;;;;;;;10.63;6.45;;;19.40;75.70;;;;;;5064779;28;20036;-53
2022/09/10 09:06:02;;;;;;;9.40;7.13;;;19.50;75.90;;;;;;5095674;28;20024;-54
2022/09/10 09:08:47;;;;;;;8.90;6.55;;;19.50;75.70;;;;;;5083167;28;20049;-54
2022/09/10 09:11:38;;;;;;;9.23;7.80;;;19.60;75.90;;;;;;5071203;28;20040;-53
2022/09/10 09:14:24;;;;;;;8.25;6.93;;;19.60;75.70;;;;;;5080771;28;20058;-54
2022/09/10 09:16:54;;;;;;;8.50;7.57;;;19.60;75.40;;;;;;5070173;28;20063;-54
2022/09/10 09:19:33;;;;;;;11.85;9.48;;;19.60;75.60;;;;;;5087877;28;20040;-54
2022/09/10 09:22:19;;;;;;;11.20;7.88;;;19.60;76.10;;;;;;5078812;28;20090;-54
2022/09/10 09:24:58;;;;;;;10.20;7.28;;;19.70;76.60;;;;;;5069342;28;20103;-53
2022/09/10 09:27:40;;;;;;;9.57;7.05;;;19.60;76.40;;;;;;5055074;28;20479;-54
2022/09/10 09:30:18;;;;;;;8.13;7.07;;;19.70;76.70;;;;;;5078388;28;20599;-53
2022/09/10 09:32:46;;;;;;;9.50;7.55;;;19.60;75.90;;;;;;5081253;28;20063;-54
2022/09/10 09:35:44;;;;;;;9.65;7.63;;;19.60;75.70;;;;;;5058851;28;20580;-54
2022/09/10 09:38:25;;;;;;;14.52;9.57;;;19.60;76.40;;;;;;5079395;28;20048;-54
2022/09/10 09:41:06;;;;;;;8.85;7.90;;;19.60;76.20;;;;;;5075557;28;20044;-54
2022/09/10 09:43:58;;;;;;;8.90;8.02;;;19.60;76.30;;;;;;5085924;28;20519;-53
2022/09/10 09:46:29;;;;;;;10.13;9.00;;;19.60;76.90;;;;;;5080843;28;20156;-53
2022/09/10 09:49:01;;;;;;;11.48;8.60;;;19.50;76.10;;;;;;5079673;28;20119;-53
2022/09/10 09:51:34;;;;;;;9.80;8.70;;;19.50;76.30;;;;;;5078576;28;20040;-50
2022/09/10 09:54:14;;;;;;;9.40;8.50;;;19.60;76.10;;;;;;5070733;28;20046;-54
2022/09/10 09:57:01;;;;;;;12.35;8.48;;;19.60;76.60;;;;;;5089417;28;20036;-54
2022/09/10 09:59:30;;;;;;;9.52;8.13;;;19.60;76.20;;;;;;5105168;28;20043;-54
2022/09/10 10:02:13;;;;;;;12.10;8.35;;;19.60;75.90;;;;;;5091183;28;20055;-53
2022/09/10 10:05:14;;;;;;;9.15;8.00;;;19.60;76.10;;;;;;5092963;28;20040;-52
2022/09/10 10:07:47;;;;;;;9.30;8.27;;;19.60;76.30;;;;;;5089589;28;20101;-52
2022/09/10 10:10:23;;;;;;;9.00;7.80;;;19.60;75.80;;;;;;5095222;28;20044;-53
2022/09/10 10:12:52;;;;;;;9.25;7.72;;;19.70;76.40;;;;;;5088954;28;20115;-54
2022/09/10 10:15:40;;;;;;;9.95;8.52;;;19.70;76.00;;;;;;5095116;28;20043;-53
2022/09/10 10:18:30;;;;;;;10.82;9.30;;;19.70;76.40;;;;;;5092244;28;20077;-51
2022/09/10 10:21:12;;;;;;;11.30;7.85;;;19.70;76.30;;;;;;5094415;28;20051;-52
2022/09/10 10:23:39;;;;;;;9.75;8.02;;;19.80;76.10;;;;;;5087058;28;20103;-53
2022/09/10 10:26:14;;;;;;;10.27;8.73;;;19.70;75.70;;;;;;5086504;28;20504;-52
2022/09/10 10:28:45;;;;;;;11.88;8.98;;;19.70;76.10;;;;;;5098703;28;20040;-52
2022/09/10 10:31:13;;;;;;;10.90;8.45;;;19.70;76.00;;;;;;5099481;28;20119;-54
2022/09/10 10:33:54;;;;;;;10.52;8.40;;;19.70;75.90;;;;;;5092884;28;20094;-53
2022/09/10 10:36:38;;;;;;;10.50;8.38;;;19.70;76.50;;;;;;5094767;28;20115;-50
2022/09/10 10:39:23;;;;;;;9.43;8.55;;;19.70;76.10;;;;;;5088106;28;20408;-54
2022/09/10 10:42:22;;;;;;;9.63;8.20;;;19.80;76.10;;;;;;5102284;28;20054;-53
2022/09/10 10:45:17;;;;;;;9.10;8.23;;;19.80;76.10;;;;;;5086340;28;20535;-54
2022/09/10 10:47:52;;;;;;;9.45;8.55;;;19.90;76.20;;;;;;5072903;28;20052;-54
2022/09/10 10:50:31;;;;;;;9.75;8.60;;;19.90;75.60;;;;;;5094070;28;20053;-54
2022/09/10 10:53:33;;;;;;;9.55;7.95;;;20.00;75.70;;;;;;5090736;28;20087;-54
2022/09/10 10:56:36;;;;;;;9.90;8.48;;;20.10;76.10;;;;;;5099614;28;20500;-54
2022/09/10 10:59:34;;;;;;;9.45;7.88;;;20.10;75.70;;;;;;5089489;28;20640;-54
2022/09/10 11:02:32;;;;;;;11.07;8.20;;;20.20;76.20;;;;;;5085796;28;20046;-53
2022/09/10 11:05:06;;;;;;;11.27;8.43;;;20.30;76.10;;;;;;5104068;28;20154;-55
2022/09/10 11:07:39;;;;;;;11.02;8.73;;;20.50;75.80;;;;;;5099477;28;20042;-55
2022/09/10 11:10:33;;;;;;;9.50;8.40;;;20.60;74.90;;;;;;5094086;28;20056;-55
2022/09/10 11:13:09;;;;;;;9.93;8.35;;;20.70;74.70;;;;;;5096379;28;20043;-55
2022/09/10 11:15:58;;;;;;;9.75;8.18;;;20.80;74.10;;;;;;5102077;28;20427;-52
2022/09/10 11:18:50;;;;;;;8.73;7.75;;;20.90;74.10;;;;;;5084706;28;20047;-55
2022/09/10 11:21:30;;;;;;;9.48;8.50;;;20.90;73.80;;;;;;5100702;28;20043;-54
2022/09/10 11:24:21;;;;;;;9.68;7.43;;;21.00;73.70;;;;;;5070369;28;20045;-52
2022/09/10 11:26:57;;;;;;;8.98;8.07;;;21.00;73.50;;;;;;5085353;28;20495;-54
2022/09/10 11:29:53;;;;;;;10.75;8.73;;;21.10;73.20;;;;;;5070472;28;20499;-53
2022/09/10 11:32:42;;;;;;;8.90;8.07;;;21.10;73.10;;;;;;5090676;28;20046;-52
2022/09/10 11:35:25;;;;;;;10.25;8.63;;;21.40;72.70;;;;;;5101710;28;20040;-55
2022/09/10 11:38:15;;;;;;;8.27;7.57;;;21.20;72.50;;;;;;5086174;28;20036;-53
2022/09/10 11:41:02;;;;;;;9.23;7.82;;;21.20;71.90;;;;;;5085043;28;20042;-54
2022/09/10 11:43:46;;;;;;;11.05;8.27;;;21.10;72.10;;;;;;5085693;28;20484;-51
2022/09/10 11:46:22;;;;;;;9.13;7.80;;;21.10;71.80;;;;;;5077594;28;20075;-52
2022/09/10 11:49:04;;;;;;;9.60;7.97;;;21.10;71.90;;;;;;5085133;28;20040;-53
2022/09/10 11:51:36;;;;;;;10.30;8.43;;;21.10;71.90;;;;;;5096175;28;20044;-53
2022/09/10 11:54:08;;;;;;;8.80;7.90;;;21.10;72.30;;;;;;5084547;28;20054;-54
2022/09/10 11:56:43;;;;;;;;;;;21.10;72.60;;;;;;5093890;28;20048;-52
2022/09/10 11:59:24;;;;;;;10.40;7.55;;;21.20;72.70;;;;;;5104724;28;20311;-54
2022/09/10 12:02:31;;;;;;;8.25;7.47;;;21.10;72.20;;;;;;5093455;28;20097;-52
2022/09/10 12:05:23;;;;;;;11.85;7.63;;;21.20;72.00;;;;;;5083886;28;20040;-54
2022/09/10 12:08:09;;;;;;;8.37;7.53;;;21.20;72.30;;;;;;5089164;28;20111;-54
2022/09/10 12:11:17;;;;;;;10.38;7.47;;;21.20;72.60;;;;;;5096207;28;20044;-53
2022/09/10 12:13:46;;;;;;;8.43;7.53;;;21.30;72.30;;;;;;5100562;28;20035;-53
2022/09/10 12:16:34;;;;;;;10.73;7.90;;;21.40;72.80;;;;;;5103395;28;20489;-52
2022/09/10 12:19:05;;;;;;;7.93;7.15;;;21.50;72.30;;;;;;5106077;28;20036;-54
2022/09/10 12:21:40;;;;;;;7.38;6.68;;;21.50;72.00;;;;;;5084864;28;20075;-51
2022/09/10 12:24:24;;;;;;;8.82;7.65;;;21.60;72.20;;;;;;5097300;28;20658;-50
2022/09/10 12:26:52;;;;;;;8.25;7.45;;;21.60;71.70;;;;;;5084087;28;20115;-54
2022/09/10 12:29:42;;;;;;;8.57;7.43;;;21.60;71.50;;;;;;5096849;28;20040;-54
2022/09/10 12:32:17;;;;;;;9.23;8.18;;;21.70;71.10;;;;;;5099085;28;20051;-54
2022/09/10 12:34:47;;;;;;;9.40;8.00;;;21.70;71.00;;;;;;5087968;28;20048;-54
2022/09/10 12:37:19;;;;;;;9.45;8.13;;;21.70;71.10;;;;;;5073782;28;20083;-54
2022/09/10 12:39:47;;;;;;;8.18;7.32;;;21.70;71.10;;;;;;5089868;28;20044;-55
2022/09/10 12:42:28;;;;;;;9.02;8.10;;;21.80;71.80;;;;;;5083935;28;20098;-54
2022/09/10 12:44:55;;;;;;;8.13;7.25;;;21.90;71.70;;;;;;5080455;28;20043;-55
2022/09/10 12:47:39;;;;;;;7.63;6.93;;;22.00;71.80;;;;;;5086689;28;20431;-53
2022/09/10 12:50:19;;;;;;;10.77;8.05;;;22.10;71.40;;;;;;5099500;28;20044;-54
2022/09/10 12:53:01;;;;;;;8.00;7.20;;;22.20;70.80;;;;;;5079183;28;20573;-54
2022/09/10 12:55:58;;;;;;;6.38;5.63;;;22.40;71.70;;;;;;5071722;28;20467;-55
2022/09/10 12:59:30;;;;;;;10.05;6.55;;;22.50;70.90;;;;;;5082382;28;20047;-55
2022/09/10 13:01:57;;;;;;;6.80;6.10;;;22.80;69.90;;;;;;4967801;28;20062;-54
2022/09/10 13:04:33;;;;;;;6.13;5.40;;;22.90;70.00;;;;;;5061383;28;20466;-54
2022/09/10 13:07:19;;;;;;;6.70;5.50;;;23.10;69.20;;;;;;5095821;28;20036;-54
2022/09/10 13:10:00;;;;;;;6.20;5.65;;;23.30;69.00;;;;;;5084272;28;20511;-54
2022/09/10 13:12:28;;;;;;;5.95;5.35;;;23.50;68.30;;;;;;5070919;28;20056;-54
2022/09/10 13:14:56;;;;;;;6.28;5.70;;;23.70;68.40;;;;;;5088203;28;20080;-54
2022/09/10 13:17:36;;;;;;;5.65;4.85;;;23.80;67.40;;;;;;5088525;28;20468;-48
2022/09/10 13:20:21;;;;;;;7.13;5.15;;;23.90;66.00;;;;;;5076860;28;20048;-51
2022/09/10 13:22:57;;;;;;;7.03;5.32;;;24.00;65.40;;;;;;5086177;28;20042;-53
2022/09/10 13:25:33;;;;;;;7.53;5.63;;;24.00;64.60;;;;;;5084836;28;20043;-52
2022/09/10 13:28:01;;;;;;;5.13;4.72;;;24.00;64.40;;;;;;5097161;28;20095;-51
2022/09/10 13:30:28;;;;;;;4.97;4.35;;;23.90;64.40;;;;;;5087881;28;20047;-50